Time;durP1;ratioP1;P1;durP2;ratioP2;P2;SDS_P1;SDS_P2;PMS_P1;PMS_P2;Temp;Humidity;BMP_temperature;BMP_pressure;BME280_temperature;BME280_humidity;BME280_pressure;Samples;Min_cycle;Max_cycle;Signal;HPM_P1;HPM_P2
2022/06/07 14:25:28;;;;;;;1.95;0.90;;;18.70;63.20;;;16.63;72.90;95493.53;5161224;27;20426;-55
2022/06/07 14:27:55;;;;;;;1.20;1.08;;;18.60;64.60;;;16.75;73.49;95487.63;5102268;27;20124;-48
2022/06/07 14:30:23;;;;;;;0.80;0.80;;;19.10;64.10;;;16.83;69.23;95484.22;5145312;27;20512;-50
2022/06/07 14:32:56;;;;;;;2.45;0.80;;;19.50;62.40;;;16.86;69.83;95490.88;5121905;27;20110;-48
2022/06/07 14:35:33;;;;;;;0.90;0.70;;;20.00;61.00;;;16.96;70.29;95489.84;5144333;27;20113;-49
2022/06/07 14:38:00;;;;;;;1.67;1.10;;;20.40;60.00;;;17.04;72.22;95492.56;5136596;27;20064;-50
2022/06/07 14:40:36;;;;;;;8.60;1.10;;;20.60;59.70;;;17.04;72.06;95484.50;5158057;27;20026;-49
2022/06/07 14:43:21;;;;;;;1.20;0.80;;;20.80;59.40;;;17.04;73.92;95489.06;5133147;27;20103;-52
2022/06/07 14:46:00;;;;;;;1.10;1.00;;;21.10;59.40;;;17.14;75.24;95475.34;5148529;27;20480;-54
2022/06/07 14:48:40;;;;;;;3.85;0.82;;;21.20;59.20;;;17.22;73.42;95468.44;5150110;27;20058;-55
2022/06/07 14:51:33;;;;;;;1.63;0.93;;;21.50;58.80;;;17.31;72.23;95478.16;5149509;27;20457;-52
2022/06/07 14:54:02;;;;;;;1.55;0.90;;;21.70;58.80;;;17.40;69.37;95482.78;5149034;27;20030;-50
2022/06/07 14:56:35;;;;;;;0.82;0.80;;;21.90;57.40;;;17.45;67.62;95472.66;5132724;27;20068;-48
2022/06/07 14:59:10;;;;;;;1.42;0.90;;;22.20;56.60;;;17.52;67.77;95481.09;5131621;27;20035;-50
2022/06/07 15:01:49;;;;;;;1.17;0.93;;;22.50;56.10;;;17.76;69.70;95483.38;5149790;27;20645;-49
2022/06/07 15:04:37;;;;;;;1.05;0.80;;;22.90;56.10;;;17.96;67.97;95481.28;5132955;27;20485;-52
2022/06/07 15:07:29;;;;;;;0.90;0.90;;;23.20;55.20;;;18.25;63.83;95473.38;5150165;27;20042;-53
2022/06/07 15:09:55;;;;;;;3.38;0.80;;;23.70;54.70;;;18.57;65.57;95470.53;5153870;22;20023;-50
2022/06/07 15:12:26;;;;;;;1.00;0.90;;;24.60;53.60;;;18.99;64.30;95479.75;5087378;28;20039;-47
2022/06/07 15:14:53;;;;;;;1.38;1.23;;;25.70;52.00;;;19.54;62.81;95478.94;5088464;28;20036;-50
2022/06/07 15:17:38;;;;;;;2.63;1.60;;;26.70;50.60;;;20.08;59.53;95467.56;5089071;28;20513;-46
2022/06/07 15:20:33;;;;;;;1.85;1.42;;;27.80;48.60;;;20.83;56.33;95466.88;5093309;28;20032;-46
2022/06/07 15:23:17;;;;;;;2.55;1.42;;;29.50;46.80;;;21.43;55.91;95468.97;5106660;28;20123;-52
2022/06/07 15:25:46;;;;;;;2.13;2.03;;;30.90;44.80;;;22.09;55.13;95467.19;5076107;28;20024;-48
2022/06/07 15:28:13;;;;;;;2.55;2.35;;;32.70;42.10;;;22.54;51.80;95464.31;5093501;28;20054;-47
2022/06/07 15:30:42;;;;;;;2.38;2.28;;;34.90;38.10;;;23.44;50.55;95464.84;5068616;28;20016;-48
2022/06/07 15:33:10;;;;;;;2.90;2.70;;;36.80;35.20;;;24.34;49.75;95454.13;5070237;28;20035;-48
2022/06/07 15:35:39;;;;;;;3.70;3.22;;;38.70;32.90;;;25.02;45.47;95468.38;5062777;28;20027;-50
2022/06/07 15:38:18;;;;;;;3.78;3.55;;;40.60;30.10;;;25.46;45.12;95459.88;5049272;28;20024;-47
2022/06/07 15:40:45;;;;;;;4.32;4.03;;;42.20;28.00;;;26.23;45.76;95461.47;5050916;28;20023;-48
2022/06/07 15:43:13;;;;;;;4.47;4.28;;;43.30;26.90;;;26.75;41.39;95459.88;5061102;28;20081;-47
2022/06/07 15:45:44;;;;;;;4.68;4.38;;;44.40;25.80;;;27.28;42.87;95459.72;5074009;28;20024;-50
2022/06/07 15:48:20;;;;;;;;;;;45.30;25.20;;;27.97;39.87;95459.19;5047227;28;20028;-47
2022/06/07 15:50:55;;;;;;;2.90;2.70;;;46.00;25.60;;;28.00;40.46;95463.13;5074745;28;19908;-51
2022/06/07 15:53:33;;;;;;;4.50;3.13;;;44.90;25.00;;;27.78;41.30;95459.44;5074918;28;20032;-47
2022/06/07 15:56:02;;;;;;;2.80;2.13;;;43.60;25.00;;;27.10;42.14;95456.75;5070491;28;20028;-47
2022/06/07 16:01:25;;;;;;;2.20;2.10;;;42.30;24.70;;;26.18;43.20;95448.97;5055010;28;20067;-49
2022/06/07 16:03:55;;;;;;;2.60;2.40;;;40.90;25.30;;;25.71;45.23;95450.16;5050836;28;20090;-47
2022/06/07 16:06:26;;;;;;;4.63;2.85;;;40.00;25.80;;;26.10;44.05;95446.47;5079808;28;20078;-48
2022/06/07 16:08:53;;;;;;;3.88;3.58;;;40.90;25.50;;;26.30;43.00;95437.81;5039546;28;20027;-47
2022/06/07 16:11:21;;;;;;;2.80;2.60;;;42.00;24.90;;;26.92;42.40;95442.91;5037190;28;20067;-47
2022/06/07 16:13:48;;;;;;;3.22;2.90;;;43.00;24.20;;;27.14;41.21;95454.09;5055446;28;20032;-49
2022/06/07 16:16:15;;;;;;;14.80;13.55;;;43.90;23.40;;;27.37;40.29;95452.00;5073573;28;20032;-48
2022/06/07 16:18:43;;;;;;;4.25;3.95;;;44.50;22.70;;;27.78;40.25;95454.75;5073144;28;20057;-51
2022/06/07 16:21:09;;;;;;;4.13;3.83;;;45.10;22.40;;;28.00;40.00;95454.91;5073219;28;20071;-52
2022/06/07 16:23:35;;;;;;;3.63;3.40;;;45.90;22.10;;;27.78;38.96;95462.16;5055084;28;20025;-56
2022/06/07 16:26:02;;;;;;;4.15;3.80;;;46.30;21.10;;;27.95;38.29;95445.09;5054569;28;20035;-49
2022/06/07 16:33:58;;;;;;;4.78;4.38;;;47.00;20.00;;;28.54;37.59;95461.53;5072912;28;20082;-49
2022/06/07 16:36:35;;;;;;;4.03;3.72;;;47.20;20.00;;;28.23;38.14;95457.41;5063338;28;20441;-49
2022/06/07 16:39:04;;;;;;;3.75;3.47;;;47.30;19.70;;;28.10;37.53;95462.41;5045718;28;20120;-58
2022/06/07 16:41:33;;;;;;;3.90;3.63;;;47.40;19.40;;;27.87;37.52;95463.41;5052213;28;20024;-51
2022/06/07 16:44:02;;;;;;;3.88;3.67;;;47.40;19.20;;;27.54;38.34;95464.25;5069437;28;20074;-49
2022/06/07 16:46:28;;;;;;;3.95;3.65;;;47.40;19.00;;;27.89;37.37;95469.31;5037667;28;20029;-51
2022/06/07 16:48:55;;;;;;;2.65;2.45;;;47.30;19.00;;;26.87;40.41;95469.78;5070920;28;20046;-48
2022/06/07 16:51:23;;;;;;;2.30;2.10;;;45.40;19.70;;;26.27;41.37;95476.00;5038133;28;20036;-48
2022/06/07 16:53:50;;;;;;;2.58;2.47;;;43.80;20.70;;;25.98;43.04;95467.38;5054695;28;20029;-52
2022/06/07 16:56:17;;;;;;;2.50;2.30;;;43.50;21.10;;;25.75;43.16;95475.53;5027274;28;20045;-54
2022/06/07 16:58:43;;;;;;;2.50;2.30;;;43.00;21.10;;;25.73;42.83;95472.41;5034472;28;20163;-50
2022/06/07 17:01:15;;;;;;;1.80;1.70;;;42.50;21.70;;;25.36;43.92;95466.72;5050510;28;20439;-53
2022/06/07 17:03:43;;;;;;;1.95;1.85;;;40.60;22.60;;;24.91;45.67;95473.59;5049434;28;20032;-51
2022/06/07 17:06:09;;;;;;;3.03;1.80;;;38.40;24.20;;;24.42;46.32;95466.78;5055013;28;20410;-49
2022/06/07 17:08:35;;;;;;;1.98;1.88;;;36.60;25.80;;;24.08;47.24;95476.50;5036306;28;20117;-52
2022/06/07 17:11:04;;;;;;;1.50;1.40;;;35.20;26.90;;;23.71;47.92;95471.34;5069483;28;20558;-60
2022/06/07 17:13:30;;;;;;;1.65;1.55;;;33.80;28.20;;;23.28;48.73;95472.16;5069363;28;20518;-55
2022/06/07 17:15:57;;;;;;;2.15;1.50;;;32.40;29.40;;;22.93;49.77;95474.69;5070769;28;20042;-50
2022/06/07 17:18:26;;;;;;;1.50;1.38;;;31.30;30.80;;;22.40;50.87;95472.81;5070980;28;20035;-48
2022/06/07 17:20:52;;;;;;;2.28;1.30;;;30.30;32.20;;;22.13;52.40;95474.31;5071029;28;20372;-47
2022/06/07 17:23:18;;;;;;;1.58;1.48;;;29.50;33.50;;;21.82;53.38;95474.88;5070051;28;20073;-52
2022/06/07 17:25:45;;;;;;;2.10;1.48;;;28.80;34.80;;;21.47;54.09;95472.59;5053252;28;20024;-47
2022/06/07 17:28:16;;;;;;;2.38;1.42;;;28.20;35.90;;;21.05;55.58;95471.13;5053064;28;20028;-47
2022/06/07 17:30:44;;;;;;;1.98;1.25;;;27.60;36.90;;;20.82;56.14;95471.50;5071067;28;20024;-49
2022/06/07 17:33:16;;;;;;;1.75;1.20;;;27.10;38.30;;;20.61;56.72;95468.00;5052512;28;20562;-49
2022/06/07 17:35:44;;;;;;;1.35;1.10;;;26.70;38.70;;;20.43;57.65;95468.13;5070640;28;20040;-46
2022/06/07 17:38:13;;;;;;;3.78;1.55;;;26.30;39.60;;;20.34;58.57;95464.69;5036519;28;20044;-47
2022/06/07 17:40:40;;;;;;;1.92;1.30;;;25.80;40.50;;;20.15;59.76;95462.44;5052674;28;20561;-49
2022/06/07 17:43:07;;;;;;;2.20;1.50;;;25.40;41.50;;;19.91;60.02;95464.97;5052770;28;20036;-46
2022/06/07 17:45:34;;;;;;;2.53;1.38;;;25.00;42.40;;;19.66;60.16;95461.28;5070492;28;20020;-48
2022/06/07 17:48:01;;;;;;;1.67;1.45;;;24.60;43.00;;;19.39;60.56;95466.75;5052510;28;20028;-51
2022/06/07 17:50:39;;;;;;;4.13;1.60;;;24.30;43.70;;;19.23;61.38;95464.91;5070859;28;20386;-46
2022/06/07 17:53:13;;;;;;;1.25;1.08;;;24.00;44.60;;;19.21;61.96;95467.13;5052950;28;20499;-48
2022/06/07 17:55:42;;;;;;;1.90;1.40;;;23.80;45.20;;;19.10;63.28;95467.47;5070146;28;20617;-50
2022/06/07 17:58:11;;;;;;;2.25;1.30;;;23.60;45.60;;;19.06;63.02;95468.47;5052599;28;20396;-52
2022/06/07 18:00:40;;;;;;;1.80;1.45;;;23.50;46.20;;;18.97;63.66;95468.47;5052904;28;20036;-49
2022/06/07 18:03:12;;;;;;;1.77;1.27;;;23.50;46.60;;;18.93;63.83;95471.00;5069909;28;20036;-46
2022/06/07 18:05:39;;;;;;;3.00;1.50;;;23.50;46.90;;;18.94;63.01;95466.41;5052802;28;20089;-45
2022/06/07 18:08:06;;;;;;;1.90;1.45;;;23.50;46.80;;;18.91;61.92;95467.84;5052452;28;20020;-46
2022/06/07 18:10:33;;;;;;;2.63;1.50;;;23.60;46.80;;;18.94;62.58;95469.09;5069866;28;20048;-48
2022/06/07 18:13:02;;;;;;;2.10;1.90;;;23.60;46.90;;;18.91;62.46;95475.94;5052516;28;20027;-48
2022/06/07 18:15:35;;;;;;;3.00;2.30;;;23.50;47.10;;;18.88;63.16;95465.00;5070255;28;20036;-46
2022/06/07 18:18:02;;;;;;;3.40;1.48;;;23.50;47.40;;;18.76;62.98;95471.03;5052525;28;20049;-57
2022/06/07 18:20:28;;;;;;;1.73;1.60;;;23.30;47.70;;;18.67;63.55;95464.81;5052301;28;20089;-48
2022/06/07 18:22:54;;;;;;;2.90;1.40;;;23.20;48.00;;;18.61;63.82;95469.56;5052827;28;20064;-46
2022/06/07 18:25:28;;;;;;;1.50;1.40;;;23.00;48.30;;;18.47;64.57;95463.56;5052050;28;20551;-52
2022/06/07 18:28:02;;;;;;;4.82;1.63;;;22.80;48.80;;;18.24;65.11;95477.19;5036437;28;20029;-46
2022/06/07 18:30:37;;;;;;;2.33;1.70;;;22.60;49.30;;;18.10;65.91;95470.34;5054982;28;20052;-48
2022/06/07 18:33:03;;;;;;;2.92;1.40;;;22.40;49.70;;;17.97;66.11;95462.09;5072065;28;20031;-45
2022/06/07 18:35:38;;;;;;;3.72;1.70;;;22.20;49.80;;;17.82;67.03;95467.91;5055330;28;20032;-47
2022/06/07 18:38:06;;;;;;;2.67;1.58;;;22.10;50.50;;;17.73;66.78;95469.75;5090853;28;20034;-49
2022/06/07 18:40:34;;;;;;;2.45;1.67;;;21.90;50.70;;;17.61;67.51;95456.09;5044549;28;20031;-50
2022/06/07 18:43:00;;;;;;;2.38;1.80;;;21.70;51.00;;;17.55;68.02;95471.63;5053004;28;20036;-54
2022/06/07 18:45:30;;;;;;;2.60;1.50;;;21.60;51.30;;;17.44;69.14;95468.38;5069516;28;20029;-48
2022/06/07 18:47:59;;;;;;;1.70;1.60;;;21.50;51.80;;;17.36;68.89;95463.78;5052004;28;20051;-46
2022/06/07 18:50:34;;;;;;;2.92;1.73;;;21.40;52.10;;;17.32;68.96;95471.66;5052162;28;20029;-46
2022/06/07 18:53:05;;;;;;;3.30;1.48;;;21.30;52.60;;;17.27;69.04;95465.63;5070550;28;20039;-47
2022/06/07 18:55:35;;;;;;;3.67;2.10;;;21.20;52.80;;;17.23;69.32;95470.81;5051614;28;20548;-51
2022/06/07 18:58:02;;;;;;;2.17;1.75;;;21.10;53.00;;;17.22;69.85;95471.13;5070104;28;20039;-48
2022/06/07 19:00:31;;;;;;;2.45;1.90;;;21.00;53.10;;;17.13;70.02;95476.47;5050262;28;20016;-49
2022/06/07 19:02:57;;;;;;;3.63;1.83;;;21.00;53.50;;;17.08;70.89;95477.41;5086816;28;20021;-50
2022/06/07 19:05:29;;;;;;;7.47;1.80;;;20.90;53.70;;;16.92;72.42;95480.78;5069456;28;20032;-45
2022/06/07 19:08:00;;;;;;;2.40;1.30;;;20.80;54.10;;;16.76;72.60;95474.97;5070318;28;20436;-48
2022/06/07 19:10:26;;;;;;;3.33;2.03;;;20.60;54.00;;;16.62;73.57;95475.81;5052208;28;20629;-55
2022/06/07 19:12:53;;;;;;;4.68;1.70;;;20.50;54.50;;;16.50;74.25;95480.13;5073871;28;20135;-44
2022/06/07 19:15:22;;;;;;;2.72;2.20;;;20.40;54.90;;;16.37;75.40;95484.47;5038158;28;20029;-48
2022/06/07 19:17:48;;;;;;;3.67;2.08;;;20.30;55.40;;;16.25;75.52;95494.94;5055163;28;20025;-50
2022/06/07 19:20:17;;;;;;;3.05;2.10;;;20.20;55.70;;;16.17;75.93;95494.56;5055683;28;20028;-47
2022/06/07 19:22:48;;;;;;;3.25;1.75;;;20.10;56.20;;;16.07;76.60;95496.66;5056019;28;20064;-48
2022/06/07 19:25:17;;;;;;;3.47;1.90;;;20.00;56.70;;;15.95;77.13;95500.69;5054915;28;20037;-49
2022/06/07 19:27:45;;;;;;;2.83;1.90;;;19.80;56.70;;;15.91;77.10;95496.19;5055272;28;20025;-49
2022/06/07 19:30:17;;;;;;;3.00;1.98;;;19.80;57.00;;;15.81;77.72;95499.09;5073400;28;20111;-47
2022/06/07 19:32:43;;;;;;;5.50;1.98;;;19.70;57.30;;;15.79;77.87;95507.44;5038915;28;20052;-49
2022/06/07 19:35:22;;;;;;;8.88;2.05;;;19.60;57.50;;;15.71;78.64;95503.56;5072941;28;20048;-46
2022/06/07 19:37:53;;;;;;;7.03;2.40;;;19.60;58.10;;;15.71;78.66;95505.47;5056123;28;20036;-50
2022/06/07 19:40:20;;;;;;;9.20;2.03;;;19.50;58.20;;;15.70;78.94;95510.03;5055654;28;20028;-48
2022/06/07 19:42:49;;;;;;;4.43;2.55;;;19.50;58.30;;;15.69;78.45;95510.31;5089708;28;20030;-46
2022/06/07 19:45:24;;;;;;;7.25;3.75;;;19.40;58.60;;;15.69;78.89;95521.06;5075146;28;20036;-50
2022/06/07 19:47:50;;;;;;;5.40;2.63;;;19.40;58.60;;;15.69;78.57;95524.53;5092653;28;20788;-52
2022/06/07 19:50:20;;;;;;;4.30;2.30;;;19.40;58.60;;;15.69;77.90;95521.84;5075225;28;20073;-49
2022/06/07 19:52:49;;;;;;;6.60;2.25;;;19.40;59.00;;;15.71;78.29;95530.41;5075101;28;20096;-46
2022/06/07 19:55:24;;;;;;;4.32;2.22;;;19.40;59.00;;;15.70;78.50;95528.84;5069774;28;20032;-56
2022/06/07 19:57:51;;;;;;;3.72;2.20;;;19.40;59.20;;;15.71;78.95;95535.00;5055832;28;20117;-52
2022/06/07 20:00:26;;;;;;;6.72;2.20;;;19.40;59.40;;;15.69;79.35;95531.81;5067915;28;20024;-49
2022/06/07 20:02:56;;;;;;;2.25;2.05;;;19.40;59.60;;;15.56;78.70;95529.88;5072127;28;20028;-48
2022/06/07 20:05:23;;;;;;;3.03;2.00;;;19.30;59.40;;;15.58;79.00;95533.06;5054640;28;20094;-48
2022/06/07 20:07:54;;;;;;;6.05;2.42;;;19.30;59.50;;;15.50;79.71;95529.97;5072994;28;20027;-48
2022/06/07 20:10:23;;;;;;;4.22;2.65;;;19.20;59.90;;;15.42;80.39;95540.63;5035947;28;20045;-50
2022/06/07 20:12:52;;;;;;;5.55;3.10;;;19.10;60.00;;;15.37;80.29;95551.44;5072753;28;20104;-51
2022/06/07 20:15:18;;;;;;;4.15;2.75;;;19.00;60.10;;;15.27;80.46;95542.47;5072181;28;20484;-51
2022/06/07 20:17:44;;;;;;;3.47;2.28;;;18.90;60.30;;;15.21;81.41;95548.22;5072261;28;20079;-47
2022/06/07 20:20:13;;;;;;;3.53;2.30;;;18.90;60.70;;;15.13;80.89;95541.63;5054292;28;20043;-50
2022/06/07 20:22:39;;;;;;;7.55;2.45;;;18.80;61.00;;;15.03;80.88;95542.59;5072198;28;20031;-44
2022/06/07 20:25:07;;;;;;;6.43;2.25;;;18.70;61.00;;;14.91;81.52;95544.91;5071635;28;20032;-49
2022/06/07 20:27:34;;;;;;;4.90;2.58;;;18.60;61.20;;;14.83;81.80;95545.59;5054329;28;20036;-51
2022/06/07 20:30:05;;;;;;;5.05;2.30;;;18.50;61.50;;;14.71;82.75;95545.25;5069894;28;20340;-49
2022/06/07 20:32:34;;;;;;;2.70;2.42;;;18.40;61.80;;;14.60;83.34;95541.13;5037921;28;20111;-56
2022/06/07 20:35:01;;;;;;;4.28;2.28;;;18.30;62.10;;;14.50;82.99;95553.53;5054025;28;20487;-56
2022/06/07 20:37:30;;;;;;;4.95;2.10;;;18.20;62.30;;;14.41;84.08;95552.59;5037242;28;20033;-50
2022/06/07 20:39:59;;;;;;;5.78;2.97;;;18.10;62.80;;;14.34;83.91;95561.00;5057184;28;20028;-51
2022/06/07 20:42:26;;;;;;;6.03;2.83;;;18.00;63.00;;;14.25;84.85;95560.03;5073307;28;20036;-50
2022/06/07 20:44:52;;;;;;;5.70;2.45;;;18.00;63.30;;;14.21;84.89;95555.56;5048737;28;20020;-45
2022/06/07 20:47:19;;;;;;;5.22;2.70;;;17.90;63.60;;;14.11;85.12;95549.25;5071328;28;20078;-46
2022/06/07 20:49:48;;;;;;;5.88;2.78;;;17.80;63.80;;;14.00;85.55;95544.31;5073106;28;20434;-51
2022/06/07 20:52:17;;;;;;;4.72;2.80;;;17.80;64.20;;;13.99;85.04;95556.09;5055464;28;20032;-49
2022/06/07 20:54:43;;;;;;;3.65;2.50;;;17.70;64.30;;;13.91;84.74;95554.84;5054959;28;20024;-47
2022/06/07 20:57:13;;;;;;;5.57;2.80;;;17.60;65.20;;;13.80;84.82;95548.03;5072769;28;20039;-49
2022/06/07 20:59:44;;;;;;;4.45;2.90;;;17.60;64.80;;;13.76;85.96;95549.69;5053284;28;20506;-48
2022/06/07 21:02:13;;;;;;;7.63;2.40;;;17.50;64.90;;;13.72;86.29;95556.69;5068513;28;20036;-50
2022/06/07 21:04:42;;;;;;;4.80;2.60;;;17.40;65.10;;;13.65;86.53;95554.34;5068629;28;20040;-48
2022/06/07 21:07:08;;;;;;;4.50;2.78;;;17.40;65.30;;;13.58;86.69;95545.88;5071722;28;20029;-48
2022/06/07 21:09:37;;;;;;;4.63;2.70;;;17.40;65.40;;;13.53;86.42;95545.91;5072147;28;20107;-51
2022/06/07 21:12:09;;;;;;;4.22;2.50;;;17.30;65.70;;;13.45;86.61;95550.00;5075574;28;20072;-50
2022/06/07 21:14:35;;;;;;;6.78;3.35;;;17.20;66.00;;;13.39;87.47;95556.50;5066888;28;20031;-50
2022/06/07 21:17:01;;;;;;;8.90;2.88;;;17.10;66.00;;;13.36;87.37;95551.72;5073452;28;20040;-48
2022/06/07 21:19:27;;;;;;;5.40;2.60;;;17.10;66.60;;;13.33;87.42;95555.75;5059366;28;20035;-48
2022/06/07 21:21:52;;;;;;;3.60;2.70;;;17.10;66.70;;;13.29;87.69;95545.91;5075441;28;20581;-49
2022/06/07 21:27:07;;;;;;;3.40;2.47;;;17.10;66.90;;;13.28;87.15;95542.41;5093271;28;20032;-51
2022/06/07 21:29:33;;;;;;;4.55;2.13;;;17.00;66.60;;;13.24;87.31;95538.66;5040552;28;20120;-50
2022/06/07 21:32:01;;;;;;;4.65;2.03;;;17.00;66.70;;;13.19;87.86;95533.34;5072609;28;20060;-51
2022/06/07 21:34:27;;;;;;;4.70;2.20;;;17.00;66.90;;;13.13;87.54;95531.81;5072747;28;20108;-47
2022/06/07 21:36:53;;;;;;;4.00;2.45;;;16.80;66.70;;;13.03;87.33;95542.59;5073060;28;20099;-49
2022/06/07 21:39:24;;;;;;;5.63;2.20;;;16.80;66.80;;;12.94;86.98;95539.72;5055295;28;20025;-46
2022/06/07 21:41:50;;;;;;;5.50;2.75;;;16.80;67.00;;;12.86;87.17;95540.34;5055116;28;20529;-46
2022/06/07 21:44:21;;;;;;;3.58;2.42;;;16.70;67.00;;;12.79;87.53;95542.56;5072835;28;20131;-49
2022/06/07 21:46:48;;;;;;;4.82;2.92;;;16.60;68.10;;;12.73;89.08;95539.13;5055004;28;20040;-45
2022/06/07 21:49:14;;;;;;;7.40;3.00;;;16.50;67.30;;;12.69;89.39;95533.53;5072841;28;20029;-47
2022/06/07 21:51:40;;;;;;;8.73;3.10;;;16.50;67.70;;;12.70;89.74;95524.44;5054978;28;20056;-46
2022/06/07 21:54:09;;;;;;;7.90;2.65;;;16.50;67.90;;;12.68;89.56;95533.78;5055176;28;20024;-49
2022/06/07 21:56:35;;;;;;;4.35;2.60;;;16.40;68.10;;;12.65;90.02;95529.00;5072771;28;20036;-46
2022/06/07 21:59:03;;;;;;;5.78;2.67;;;16.40;68.10;;;12.65;89.61;95523.66;5072599;28;20032;-50
2022/06/07 22:01:32;;;;;;;9.32;2.67;;;16.40;68.20;;;12.63;89.51;95521.28;5072440;28;20029;-46
2022/06/07 22:03:58;;;;;;;5.90;2.67;;;16.40;68.40;;;12.60;89.68;95518.38;5072652;28;20028;-48
2022/06/07 22:06:27;;;;;;;3.70;3.08;;;16.30;68.30;;;12.53;90.02;95526.69;5054643;28;20025;-47
2022/06/07 22:08:52;;;;;;;4.10;3.03;;;16.40;68.70;;;12.54;91.16;95528.28;5055112;28;20487;-47
2022/06/07 22:11:21;;;;;;;4.70;3.35;;;16.30;68.90;;;12.56;91.61;95519.97;5072223;28;20045;-46
2022/06/07 22:13:46;;;;;;;4.43;3.20;;;16.30;69.30;;;12.61;91.77;95509.28;5054330;28;20390;-47
2022/06/07 22:16:14;;;;;;;3.83;2.90;;;16.30;69.50;;;12.63;91.56;95515.94;5054446;28;20116;-50
2022/06/07 22:18:40;;;;;;;3.38;2.97;;;16.30;69.60;;;12.64;91.84;95516.72;5038063;28;20032;-47
2022/06/07 22:21:10;;;;;;;4.68;3.30;;;16.30;69.80;;;12.65;91.41;95504.97;5072323;28;20029;-45
2022/06/07 22:23:36;;;;;;;3.40;2.92;;;16.40;70.00;;;12.64;91.27;95506.84;5054421;28;20037;-49
2022/06/07 22:26:03;;;;;;;3.92;3.17;;;16.40;69.90;;;12.63;91.00;95507.91;5072321;28;20029;-46
2022/06/07 22:31:19;;;;;;;5.53;3.38;;;16.40;69.90;;;12.58;91.10;95502.59;5072763;28;20043;-46
2022/06/07 22:33:46;;;;;;;6.45;3.28;;;16.30;69.70;;;12.53;91.32;95493.81;5072477;28;20033;-46
2022/06/07 22:36:20;;;;;;;6.95;2.72;;;16.30;69.90;;;12.52;90.71;95497.56;5037805;28;20060;-48
2022/06/07 22:38:49;;;;;;;6.45;3.25;;;16.20;70.00;;;12.45;91.17;95497.91;5072469;28;20043;-46
2022/06/07 22:41:14;;;;;;;6.25;3.53;;;16.20;70.00;;;12.41;90.75;95491.50;5054550;28;20032;-46
2022/06/07 22:43:43;;;;;;;6.53;3.05;;;16.10;70.00;;;12.35;91.23;95493.44;5054280;28;20082;-46
2022/06/07 22:46:11;;;;;;;4.13;2.80;;;16.10;70.20;;;12.31;91.32;95486.22;5074411;28;20029;-49
2022/06/07 22:48:37;;;;;;;3.47;2.90;;;16.00;70.20;;;12.29;91.18;95491.84;5091546;28;20051;-46
2022/06/07 22:51:05;;;;;;;5.28;2.85;;;16.00;70.20;;;12.21;91.09;95485.22;5096439;28;20494;-49
2022/06/07 22:53:39;;;;;;;9.18;3.10;;;15.90;70.30;;;12.15;91.78;95483.66;5078439;28;20028;-45
2022/06/07 22:56:06;;;;;;;3.92;3.10;;;15.90;70.60;;;12.12;91.73;95476.19;5078280;28;20028;-47
2022/06/07 22:58:39;;;;;;;3.90;3.10;;;15.80;70.60;;;12.07;92.65;95478.91;5096299;28;20036;-46
2022/06/07 23:01:11;;;;;;;4.78;2.83;;;15.80;70.80;;;12.08;92.51;95479.69;5096263;28;20024;-46
2022/06/07 23:03:43;;;;;;;7.28;3.10;;;15.80;70.90;;;12.08;91.61;95480.50;5045961;28;20028;-49
2022/06/07 23:06:14;;;;;;;7.57;3.10;;;15.70;70.70;;;12.02;91.86;95485.06;5061709;28;20036;-45
2022/06/07 23:08:43;;;;;;;5.57;3.22;;;15.70;70.70;;;11.92;91.40;95469.09;5068678;28;20029;-46
2022/06/07 23:11:11;;;;;;;5.72;2.90;;;15.60;70.60;;;11.88;90.99;95475.28;5075763;28;20044;-47
2022/06/07 23:19:14;;;;;;;4.38;2.75;;;15.40;70.40;;;11.57;90.22;95473.50;5063714;28;20094;-47
2022/06/07 23:21:40;;;;;;;4.63;3.40;;;15.30;70.60;;;11.49;90.42;95468.72;5074575;28;20483;-46
2022/06/07 23:24:09;;;;;;;6.10;2.97;;;15.30;70.50;;;11.42;91.30;95460.22;5074515;28;20036;-46
